Decoded Metar for PAAK (ATKA in AK, USA) (IATA:AAK) | Meteo·Mobile Aviation Weather
aviador You're here:

PAAK Decoded Metar

ATKA in AK, USA
Report Time2018-10-20 08:56:00
UTC Time2018-10-20 09:38:34
Flight Rules vfr VFR
Wind250° at 08 kt
W.Decomp.*RWY 16: 1.1 kt HW 7.9 kt RCW
W.Rank250° ranks 23
Current wind is below 250° avg. (8.5)
Visibility9999 m
Phenomena:N/A
Clouds:Few 023 Hf
Broken 030 Hf
Broken 036 Hf
Expected CloudBase > 1,200 ft AGL from Temp-Dew spread
Ceiling3,000 ft
Temp06°C (ISA -9)
Dew Point03°C (81% RH)
AAT1.6°C
QNH993 hPa
Density Alt-226 ft
Elevation56 ft
Report Wrong Elevation
Raw Report
PAAK 200856Z AUTO 25008KT 10SM FEW023 BKN030 BKN036 06/03 A2933
RMK AO2 RAE25B44E55 SLP934 6//// T00560033 400890050 50001
PNO $=

Extra information for PAAK:More info

Metar Taf Metar & Taf Last 4 Metars F.Rules Stats Wind Profile Meteogram Temp Stats Airport Information Weather charts Add Link Nearby VenuesMetar ALERT Operation Metar Decoded Social comments

AIRNAV info for PAAK